Time;durP1;ratioP1;P1;durP2;ratioP2;P2;SDS_P1;SDS_P2;PMS_P1;PMS_P2;Temp;Humidity;BMP_temperature;BMP_pressure;BME280_temperature;BME280_humidity;BME280_pressure;Samples;Min_cycle;Max_cycle;Signal;HPM_P1;HPM_P2
2020/12/10 00:00:00;;;;;;;59.53;26.80;;;3.20;83.70;;;;;;5056293;28;20021;-74
2020/12/10 00:02:29;;;;;;;57.45;26.95;;;3.20;83.80;;;;;;5068810;28;20100;-73
2020/12/10 00:04:55;;;;;;;57.38;26.70;;;3.20;83.80;;;;;;5059642;28;20039;-74
2020/12/10 00:07:22;;;;;;;51.97;26.48;;;3.30;83.80;;;;;;5043239;28;20116;-74
2020/12/10 00:09:52;;;;;;;60.85;28.77;;;3.40;83.20;;;;;;5048733;28;20395;-74
2020/12/10 00:12:19;;;;;;;50.25;21.70;;;3.30;83.10;;;;;;5055502;28;20040;-74
2020/12/10 00:14:45;;;;;;;58.13;26.42;;;3.20;83.50;;;;;;5066002;28;20635;-73
2020/12/10 00:17:12;;;;;;;55.97;26.13;;;3.30;83.60;;;;;;5061770;28;20078;-73
2020/12/10 00:19:40;;;;;;;64.43;28.20;;;3.20;83.40;;;;;;5034305;28;20021;-74
2020/12/10 00:22:07;;;;;;;54.00;25.95;;;3.10;83.60;;;;;;5068967;28;20077;-74
2020/12/10 00:24:32;;;;;;;61.72;25.98;;;3.10;83.80;;;;;;5038498;28;20116;-78
2020/12/10 00:26:58;;;;;;;58.35;27.27;;;3.10;84.00;;;;;;5064268;28;20535;-76
2020/12/10 00:29:24;;;;;;;59.22;27.60;;;3.10;83.90;;;;;;5063181;28;20479;-76
2020/12/10 00:31:49;;;;;;;54.90;26.25;;;3.20;83.80;;;;;;5056806;28;20426;-75
2020/12/10 00:34:15;;;;;;;55.75;27.23;;;3.20;83.90;;;;;;5070377;28;20103;-76
2020/12/10 00:36:41;;;;;;;55.58;26.52;;;3.20;83.70;;;;;;5048212;28;20032;-76
2020/12/10 00:39:06;;;;;;;59.38;27.85;;;3.20;83.30;;;;;;5060858;28;20032;-76
2020/12/10 00:41:32;;;;;;;52.60;26.35;;;3.20;83.20;;;;;;5059065;28;20468;-76
2020/12/10 00:43:58;;;;;;;58.17;25.55;;;3.10;83.40;;;;;;5059181;28;20017;-76
2020/12/10 00:46:23;;;;;;;64.47;26.77;;;3.20;83.70;;;;;;5051717;28;20040;-74
2020/12/10 00:48:49;;;;;;;57.05;25.77;;;3.10;83.40;;;;;;5058135;28;20029;-75
2020/12/10 00:51:15;;;;;;;57.75;27.95;;;3.00;83.60;;;;;;5043091;28;20029;-73
2020/12/10 00:53:40;;;;;;;60.17;27.77;;;3.00;83.90;;;;;;5065020;28;20029;-76
2020/12/10 00:56:06;;;;;;;60.50;27.70;;;3.00;84.20;;;;;;5054028;28;20104;-75
2020/12/10 00:58:31;;;;;;;58.25;25.38;;;3.00;84.30;;;;;;5055624;28;20149;-75
2020/12/10 01:00:57;;;;;;;61.10;27.83;;;2.90;84.30;;;;;;5063625;28;20021;-74
2020/12/10 01:03:23;;;;;;;65.72;28.35;;;2.90;84.30;;;;;;5062379;28;20021;-75
2020/12/10 01:05:48;;;;;;;60.83;28.52;;;2.80;84.50;;;;;;5056362;28;20044;-75
2020/12/10 01:08:14;;;;;;;60.15;26.65;;;2.80;84.60;;;;;;5067623;28;20036;-74
2020/12/10 01:10:40;;;;;;;60.58;28.40;;;2.90;84.60;;;;;;5056631;28;20021;-75
2020/12/10 01:13:06;;;;;;;59.97;27.55;;;2.90;84.60;;;;;;5062630;28;20021;-75
2020/12/10 01:15:32;;;;;;;57.72;26.27;;;2.90;84.50;;;;;;5063967;28;20060;-74
2020/12/10 01:17:58;;;;;;;58.15;28.15;;;3.00;84.30;;;;;;5055449;28;20033;-74
2020/12/10 01:20:24;;;;;;;57.67;26.75;;;2.90;84.40;;;;;;5067606;28;20021;-74
2020/12/10 01:22:50;;;;;;;59.42;27.08;;;3.00;84.40;;;;;;5057723;28;20013;-73
2020/12/10 01:25:15;;;;;;;60.00;28.08;;;2.90;84.40;;;;;;5060737;28;20078;-73
2020/12/10 01:27:41;;;;;;;56.63;27.35;;;2.90;84.40;;;;;;5065021;28;20065;-74
2020/12/10 01:30:07;;;;;;;55.85;25.85;;;2.90;84.50;;;;;;5054397;28;20059;-74
2020/12/10 01:32:33;;;;;;;56.47;26.60;;;2.90;84.60;;;;;;5041286;28;20043;-74
2020/12/10 01:34:59;;;;;;;59.38;25.02;;;2.90;84.30;;;;;;5058684;28;20024;-74
2020/12/10 01:37:25;;;;;;;53.80;24.42;;;3.00;84.20;;;;;;5070974;28;20471;-73
2020/12/10 01:39:51;;;;;;;53.45;25.83;;;3.00;83.90;;;;;;5055912;28;20033;-73
2020/12/10 01:42:17;;;;;;;55.75;26.05;;;3.10;83.80;;;;;;5067031;28;20479;-74
2020/12/10 01:44:43;;;;;;;58.10;27.05;;;3.10;83.60;;;;;;5062898;28;20154;-74
2020/12/10 01:47:09;;;;;;;57.80;26.20;;;3.00;83.80;;;;;;5061359;28;20520;-73
2020/12/10 01:49:37;;;;;;;56.55;26.13;;;3.00;83.80;;;;;;5045478;28;20043;-73
2020/12/10 01:52:05;;;;;;;58.03;26.05;;;3.10;83.80;;;;;;5054276;28;20071;-74
2020/12/10 01:54:32;;;;;;;56.92;25.55;;;3.10;83.70;;;;;;5066789;28;20021;-74
2020/12/10 01:56:57;;;;;;;57.35;26.38;;;3.10;83.30;;;;;;5050506;28;20024;-73
2020/12/10 01:59:24;;;;;;;56.15;26.65;;;3.10;83.20;;;;;;5061924;28;20020;-73
2020/12/10 02:01:50;;;;;;;58.13;26.40;;;3.00;83.60;;;;;;5055721;28;20060;-73
2020/12/10 02:04:29;;;;;;;58.75;27.05;;;2.90;83.80;;;;;;5067101;28;20017;-74
2020/12/10 02:06:58;;;;;;;62.17;26.88;;;2.90;83.70;;;;;;5058072;28;20033;-73
2020/12/10 02:09:24;;;;;;;58.00;25.77;;;2.80;83.90;;;;;;5058869;28;20476;-74
2020/12/10 02:11:52;;;;;;;54.00;24.83;;;2.90;83.70;;;;;;5065655;28;20031;-73
2020/12/10 02:14:19;;;;;;;59.10;27.38;;;2.90;83.70;;;;;;5053922;28;20056;-73
2020/12/10 02:16:44;;;;;;;58.28;27.23;;;2.90;83.70;;;;;;5049760;28;20538;-73
2020/12/10 02:19:10;;;;;;;53.70;25.80;;;3.00;83.40;;;;;;5063999;28;20028;-75
2020/12/10 02:21:36;;;;;;;60.20;27.27;;;3.00;83.40;;;;;;5061261;28;20064;-76
2020/12/10 02:24:02;;;;;;;57.55;25.83;;;3.00;83.60;;;;;;5052891;28;20044;-74
2020/12/10 02:26:28;;;;;;;55.67;25.27;;;2.90;83.60;;;;;;5058021;28;20021;-74
2020/12/10 02:28:59;;;;;;;61.45;27.42;;;3.10;83.30;;;;;;5066730;28;20379;-73
2020/12/10 02:31:26;;;;;;;57.05;26.45;;;3.00;83.20;;;;;;5057512;28;20060;-75
2020/12/10 02:33:58;;;;;;;58.53;25.88;;;2.90;83.60;;;;;;5074195;28;20479;-74
2020/12/10 02:36:24;;;;;;;60.38;26.10;;;2.80;83.80;;;;;;5039589;28;20027;-74
2020/12/10 02:38:50;;;;;;;59.88;26.90;;;2.70;84.20;;;;;;5067442;28;20036;-75
2020/12/10 02:41:15;;;;;;;60.50;25.23;;;2.70;84.20;;;;;;5064222;28;20024;-75
2020/12/10 02:43:41;;;;;;;60.10;27.85;;;2.70;84.40;;;;;;5048099;28;20044;-74
2020/12/10 02:46:07;;;;;;;56.90;26.70;;;2.80;84.30;;;;;;5070435;28;20021;-74
2020/12/10 02:48:33;;;;;;;61.30;26.15;;;2.80;83.90;;;;;;5058067;28;20067;-74
2020/12/10 02:51:00;;;;;;;59.88;26.42;;;2.80;84.10;;;;;;5065903;28;20059;-75
2020/12/10 02:53:27;;;;;;;60.70;27.30;;;2.90;84.10;;;;;;5065304;28;20024;-75
2020/12/10 02:55:53;;;;;;;61.17;27.23;;;2.90;83.90;;;;;;5058327;28;20021;-75
2020/12/10 02:58:19;;;;;;;60.35;26.42;;;3.00;83.90;;;;;;5055882;28;20017;-75
2020/12/10 03:00:45;;;;;;;57.22;26.75;;;3.00;83.40;;;;;;5067764;28;20021;-74
2020/12/10 03:03:10;;;;;;;58.28;25.90;;;3.00;83.20;;;;;;5063181;28;20024;-74
2020/12/10 03:05:36;;;;;;;56.72;26.02;;;3.00;83.20;;;;;;5060343;28;20451;-74
2020/12/10 03:08:02;;;;;;;56.65;26.38;;;3.00;83.10;;;;;;5069964;28;20040;-74
2020/12/10 03:10:27;;;;;;;58.20;26.98;;;3.00;83.10;;;;;;5057259;28;20021;-74
2020/12/10 03:12:53;;;;;;;58.90;27.17;;;3.00;83.00;;;;;;5066130;28;20530;-74
2020/12/10 03:15:18;;;;;;;52.28;24.27;;;2.90;83.50;;;;;;5046178;28;20032;-75
2020/12/10 03:17:44;;;;;;;58.97;26.33;;;3.00;83.50;;;;;;5059472;28;20494;-74
2020/12/10 03:20:10;;;;;;;55.45;24.75;;;3.00;83.10;;;;;;5069946;28;20108;-75
2020/12/10 03:22:36;;;;;;;60.45;25.63;;;2.90;83.30;;;;;;5058267;28;20055;-75
2020/12/10 03:25:02;;;;;;;54.78;25.15;;;3.00;83.40;;;;;;5047139;28;20095;-74
2020/12/10 03:27:28;;;;;;;56.60;26.70;;;3.00;83.30;;;;;;5047010;28;20024;-75
2020/12/10 03:29:54;;;;;;;57.25;26.48;;;3.10;82.80;;;;;;5057768;28;20037;-74
2020/12/10 03:32:19;;;;;;;52.10;25.27;;;3.00;83.10;;;;;;5060476;28;20029;-74
2020/12/10 03:34:45;;;;;;;53.75;25.05;;;3.00;83.20;;;;;;5058956;28;20036;-74
2020/12/10 03:37:10;;;;;;;64.05;26.65;;;3.00;83.00;;;;;;5063420;28;20025;-74
2020/12/10 03:39:36;;;;;;;53.55;26.00;;;3.00;83.00;;;;;;5066098;28;20032;-74
2020/12/10 03:42:02;;;;;;;61.63;26.20;;;3.00;83.00;;;;;;5038077;28;20025;-74
2020/12/10 03:44:28;;;;;;;55.25;24.70;;;2.90;83.40;;;;;;5061373;28;20082;-74
2020/12/10 03:46:54;;;;;;;58.05;27.30;;;2.90;83.30;;;;;;5052686;28;20029;-74
2020/12/10 03:49:20;;;;;;;58.92;27.27;;;3.00;83.30;;;;;;5063228;28;20471;-73
2020/12/10 03:51:45;;;;;;;57.65;25.88;;;3.00;83.40;;;;;;5058494;28;20025;-74
2020/12/10 03:54:11;;;;;;;56.10;25.10;;;2.90;83.60;;;;;;5069207;28;20029;-74
2020/12/10 03:56:37;;;;;;;59.65;26.42;;;2.90;84.50;;;;;;5052397;28;20017;-74
2020/12/10 04:01:48;;;;;;;61.08;26.83;;;2.90;84.20;;;;;;5057771;28;20556;-74
2020/12/10 04:04:14;;;;;;;57.35;26.70;;;2.90;84.10;;;;;;5069215;28;20067;-74
2020/12/10 04:06:43;;;;;;;57.95;25.88;;;2.90;84.20;;;;;;5057839;28;20467;-74
2020/12/10 04:09:12;;;;;;;59.60;25.52;;;2.90;84.10;;;;;;5062951;28;20122;-74
2020/12/10 04:11:39;;;;;;;57.22;26.45;;;2.90;83.90;;;;;;5048128;28;20609;-74
2020/12/10 04:14:05;;;;;;;63.42;26.17;;;2.80;84.00;;;;;;5055788;28;20196;-74
2020/12/10 04:16:31;;;;;;;60.28;26.95;;;2.80;84.60;;;;;;5068242;28;20083;-75
2020/12/10 04:18:56;;;;;;;59.80;26.50;;;2.90;84.60;;;;;;5059777;28;20047;-74
2020/12/10 04:21:22;;;;;;;58.88;25.65;;;2.90;83.90;;;;;;5042915;28;20029;-74
2020/12/10 04:23:48;;;;;;;56.00;27.98;;;3.00;83.90;;;;;;5066738;28;20020;-74
2020/12/10 04:26:15;;;;;;;65.50;27.15;;;2.90;83.80;;;;;;5055558;28;20025;-75
2020/12/10 04:28:42;;;;;;;57.25;25.83;;;2.90;83.80;;;;;;5066566;28;20025;-74
2020/12/10 04:31:08;;;;;;;56.72;25.90;;;2.90;83.90;;;;;;5054700;28;20166;-74
2020/12/10 04:33:33;;;;;;;63.88;27.98;;;2.80;84.00;;;;;;5070581;28;20051;-74
2020/12/10 04:35:59;;;;;;;63.60;26.52;;;2.90;83.90;;;;;;5055551;28;20140;-74
2020/12/10 04:38:25;;;;;;;63.08;27.67;;;2.80;83.80;;;;;;5049588;28;20028;-73
2020/12/10 04:40:51;;;;;;;62.80;27.30;;;2.80;84.20;;;;;;5058753;28;20024;-74
2020/12/10 04:43:25;;;;;;;62.88;27.58;;;2.70;84.50;;;;;;5066952;28;20387;-74
2020/12/10 04:45:56;;;;;;;62.00;26.88;;;2.70;84.60;;;;;;5049035;28;20056;-75
2020/12/10 04:48:24;;;;;;;68.72;28.58;;;2.70;84.70;;;;;;5054675;28;20059;-75
2020/12/10 04:50:50;;;;;;;69.50;28.80;;;2.80;84.60;;;;;;5046752;28;20063;-74
2020/12/10 04:53:16;;;;;;;65.55;27.70;;;2.80;84.60;;;;;;5061532;28;20060;-75
2020/12/10 04:55:43;;;;;;;66.32;28.35;;;2.70;85.20;;;;;;5057410;28;20537;-75
2020/12/10 04:58:09;;;;;;;65.28;29.00;;;2.70;85.10;;;;;;5052467;28;20534;-75
2020/12/10 05:00:35;;;;;;;63.53;27.92;;;2.70;84.90;;;;;;5066718;28;20071;-75
2020/12/10 05:03:01;;;;;;;62.70;28.38;;;2.70;84.90;;;;;;5059370;28;20024;-75
2020/12/10 05:05:33;;;;;;;69.30;29.50;;;2.60;84.90;;;;;;5059160;28;20539;-74
2020/12/10 05:08:00;;;;;;;65.15;29.35;;;2.70;84.80;;;;;;5067215;28;20522;-75
2020/12/10 05:10:26;;;;;;;69.20;30.17;;;2.70;84.60;;;;;;5054504;28;20032;-74
2020/12/10 05:13:05;;;;;;;70.10;31.15;;;2.70;84.90;;;;;;5064022;28;20021;-74
2020/12/10 05:15:33;;;;;;;77.60;30.42;;;2.60;84.90;;;;;;5045451;28;20028;-74
2020/12/10 05:18:10;;;;;;;75.70;32.15;;;2.40;85.60;;;;;;5054505;28;20040;-74
2020/12/10 05:20:39;;;;;;;77.72;31.95;;;2.30;86.10;;;;;;5055880;28;20536;-74
2020/12/10 05:23:07;;;;;;;85.07;33.63;;;2.20;86.40;;;;;;5062102;28;20380;-74
2020/12/10 05:25:44;;;;;;;84.45;33.40;;;2.20;86.70;;;;;;5045567;28;20074;-74
2020/12/10 05:28:09;;;;;;;86.55;33.75;;;2.10;86.90;;;;;;5035864;28;20021;-74
2020/12/10 05:30:35;;;;;;;77.47;31.85;;;2.10;87.00;;;;;;5066001;28;20498;-75
2020/12/10 05:33:11;;;;;;;86.18;34.83;;;2.00;87.10;;;;;;5053367;28;20038;-75
2020/12/10 05:35:37;;;;;;;78.45;31.90;;;2.00;87.20;;;;;;5063731;28;20021;-75
2020/12/10 05:38:08;;;;;;;74.18;30.88;;;2.00;87.10;;;;;;5054068;28;20029;-74
2020/12/10 05:40:34;;;;;;;77.15;31.98;;;2.00;87.10;;;;;;5048396;28;20021;-75
2020/12/10 05:43:00;;;;;;;78.70;32.60;;;2.00;87.00;;;;;;5050568;28;20043;-75
2020/12/10 05:45:27;;;;;;;74.38;31.00;;;2.10;86.90;;;;;;5058717;28;20119;-75
2020/12/10 05:47:54;;;;;;;81.03;31.77;;;2.10;86.90;;;;;;5032604;28;20057;-76
2020/12/10 05:50:25;;;;;;;77.15;31.83;;;2.00;86.80;;;;;;5068469;28;20032;-74
2020/12/10 05:53:08;;;;;;;78.88;29.23;;;2.00;86.80;;;;;;5043748;28;20028;-74
2020/12/10 05:55:39;;;;;;;74.25;28.85;;;1.90;86.90;;;;;;5043550;28;20108;-74
2020/12/10 05:58:06;;;;;;;78.70;31.65;;;2.00;87.00;;;;;;5037323;28;20109;-74
2020/12/10 06:00:33;;;;;;;76.22;31.52;;;2.00;86.60;;;;;;5070520;28;20029;-74
2020/12/10 06:02:59;;;;;;;71.82;31.38;;;2.00;86.70;;;;;;5062229;28;20479;-73
2020/12/10 06:05:25;;;;;;;74.35;30.90;;;1.90;86.80;;;;;;5063141;28;20033;-74
2020/12/10 06:07:59;;;;;;;76.80;30.00;;;1.90;87.00;;;;;;5039889;28;20029;-74
2020/12/10 06:10:25;;;;;;;74.10;28.98;;;2.00;87.00;;;;;;5057003;28;20033;-74
2020/12/10 06:12:51;;;;;;;73.35;31.75;;;2.00;86.60;;;;;;5067348;28;20537;-74
2020/12/10 06:15:28;;;;;;;76.32;32.17;;;2.10;86.60;;;;;;5064624;28;20029;-75
2020/12/10 06:18:04;;;;;;;79.40;32.55;;;2.10;86.20;;;;;;5058593;28;20021;-74
2020/12/10 06:20:40;;;;;;;71.55;30.05;;;2.10;86.20;;;;;;5058124;28;20488;-74
2020/12/10 06:23:29;;;;;;;82.55;32.13;;;2.10;86.30;;;;;;5064612;28;20048;-74
2020/12/10 06:25:56;;;;;;;80.07;32.35;;;1.90;86.70;;;;;;5054128;28;20070;-74
2020/12/10 06:28:23;;;;;;;82.25;32.97;;;1.80;87.20;;;;;;5052461;28;20036;-74
2020/12/10 06:31:12;;;;;;;77.95;30.30;;;1.80;87.10;;;;;;5056304;28;20152;-74
2020/12/10 06:33:39;;;;;;;78.60;32.47;;;1.80;87.00;;;;;;5059849;28;20036;-74
2020/12/10 06:36:29;;;;;;;79.25;31.65;;;1.80;86.90;;;;;;5070278;28;20519;-75
2020/12/10 06:38:56;;;;;;;77.30;30.70;;;1.80;87.00;;;;;;5043059;28;20133;-74
2020/12/10 06:41:23;;;;;;;81.60;33.55;;;1.80;86.90;;;;;;5062298;28;20023;-74
2020/12/10 06:43:48;;;;;;;73.72;30.48;;;1.80;86.80;;;;;;5059858;28;20029;-74
2020/12/10 06:46:14;;;;;;;77.90;30.33;;;1.80;86.80;;;;;;5054872;28;20025;-75
2020/12/10 06:48:45;;;;;;;81.05;33.17;;;1.80;86.90;;;;;;5058928;28;20051;-74
2020/12/10 06:51:14;;;;;;;79.97;31.38;;;1.80;86.90;;;;;;5064084;28;20116;-74
2020/12/10 06:53:41;;;;;;;79.07;32.05;;;1.90;86.70;;;;;;5067032;28;20111;-75
2020/12/10 06:56:09;;;;;;;79.68;31.65;;;1.80;86.60;;;;;;5045025;28;20021;-76
2020/12/10 06:58:36;;;;;;;69.88;30.30;;;1.80;86.70;;;;;;5051448;28;20021;-75
2020/12/10 07:01:24;;;;;;;70.18;31.10;;;1.80;86.50;;;;;;5061638;28;20024;-76
2020/12/10 07:03:52;;;;;;;77.72;30.85;;;1.80;86.70;;;;;;5058273;28;20021;-78
2020/12/10 07:06:19;;;;;;;76.38;29.65;;;1.80;86.60;;;;;;5051385;28;20055;-76
2020/12/10 07:09:07;;;;;;;77.00;29.55;;;1.90;86.70;;;;;;5059395;28;20024;-75
2020/12/10 07:11:42;;;;;;;75.95;30.90;;;1.90;86.30;;;;;;5060883;28;20059;-74
2020/12/10 07:14:28;;;;;;;75.32;29.52;;;1.80;86.30;;;;;;5069598;28;20513;-74
2020/12/10 07:16:55;;;;;;;67.82;29.50;;;1.80;86.10;;;;;;5060590;28;20020;-75
2020/12/10 07:19:21;;;;;;;67.45;28.45;;;1.70;86.30;;;;;;5062343;28;20066;-74
2020/12/10 07:21:47;;;;;;;66.82;27.90;;;1.80;86.20;;;;;;5036134;28;20025;-87
2020/12/10 07:24:12;;;;;;;66.63;27.88;;;1.70;86.00;;;;;;5054606;28;20079;-80
2020/12/10 07:26:39;;;;;;;69.68;28.02;;;1.70;86.00;;;;;;5050099;28;20107;-76
2020/12/10 07:29:05;;;;;;;74.30;29.42;;;1.60;86.20;;;;;;5043494;28;20036;-76
2020/12/10 07:31:31;;;;;;;67.38;27.52;;;1.60;86.30;;;;;;5044368;28;20036;-76
2020/12/10 07:33:58;;;;;;;65.53;27.65;;;1.70;86.10;;;;;;5057099;28;20104;-77
2020/12/10 07:36:26;;;;;;;60.92;26.65;;;1.70;86.10;;;;;;5069388;28;20021;-77
2020/12/10 07:38:51;;;;;;;68.82;29.38;;;1.70;86.00;;;;;;5041843;28;20017;-77
2020/12/10 07:41:17;;;;;;;59.13;27.23;;;1.80;85.60;;;;;;5044279;28;20479;-77
2020/12/10 07:43:44;;;;;;;70.85;28.85;;;1.80;85.20;;;;;;5058064;28;20016;-76
2020/12/10 07:46:11;;;;;;;60.30;27.90;;;1.70;85.40;;;;;;5067908;28;20107;-79
2020/12/10 07:48:38;;;;;;;67.63;26.42;;;1.70;85.80;;;;;;5060394;28;20045;-80
2020/12/10 07:51:03;;;;;;;68.75;28.98;;;1.70;85.70;;;;;;5064363;28;20042;-77
2020/12/10 07:53:29;;;;;;;74.40;30.45;;;1.70;85.80;;;;;;5051626;28;20121;-76
2020/12/10 07:55:59;;;;;;;66.55;27.35;;;1.70;85.60;;;;;;5038963;28;20029;-77
2020/12/10 07:58:30;;;;;;;65.07;28.27;;;1.80;85.40;;;;;;5055365;28;20074;-81
2020/12/10 08:01:01;;;;;;;64.97;27.60;;;1.80;85.30;;;;;;5046500;28;20020;-85
2020/12/10 08:03:33;;;;;;;68.03;26.90;;;1.90;85.40;;;;;;5063859;28;20024;-79
2020/12/10 08:06:03;;;;;;;69.75;28.35;;;2.00;85.30;;;;;;5038412;28;20096;-84
2020/12/10 08:08:44;;;;;;;66.65;29.67;;;2.00;85.30;;;;;;5037675;28;20063;-82
2020/12/10 08:11:19;;;;;;;65.28;27.25;;;2.00;85.40;;;;;;5044921;28;20056;-83
2020/12/10 08:14:01;;;;;;;64.63;27.98;;;2.00;85.20;;;;;;5065312;28;20161;-81
2020/12/10 08:16:44;;;;;;;67.57;28.30;;;2.00;85.20;;;;;;5055109;28;20430;-83
2020/12/10 08:19:20;;;;;;;63.80;26.50;;;2.00;85.20;;;;;;5062264;28;20029;-75
2020/12/10 08:21:48;;;;;;;58.40;27.83;;;2.00;85.10;;;;;;5066102;28;20067;-81
2020/12/10 08:24:14;;;;;;;68.63;29.05;;;1.90;84.80;;;;;;5037038;28;20028;-78
2020/12/10 08:26:57;;;;;;;68.82;29.77;;;1.90;85.00;;;;;;5066384;28;20048;-84
2020/12/10 08:29:23;;;;;;;70.78;29.98;;;2.00;84.90;;;;;;5063309;28;20044;-80
2020/12/10 08:31:48;;;;;;;72.32;30.67;;;2.00;84.80;;;;;;5061231;28;20118;-79
2020/12/10 08:34:17;;;;;;;66.80;29.13;;;2.10;84.50;;;;;;5070053;28;20071;-80
2020/12/10 08:36:44;;;;;;;73.40;30.75;;;2.00;84.30;;;;;;5040089;28;20074;-83
2020/12/10 08:39:10;;;;;;;75.15;29.73;;;2.00;84.20;;;;;;5063541;28;20080;-83
2020/12/10 08:41:37;;;;;;;61.35;27.23;;;2.10;84.50;;;;;;5064448;28;20032;-83
2020/12/10 08:44:07;;;;;;;69.70;28.10;;;2.00;84.10;;;;;;5055980;28;20095;-79
2020/12/10 08:46:35;;;;;;;65.28;29.40;;;2.00;84.40;;;;;;5067901;28;20438;-79
2020/12/10 08:49:20;;;;;;;69.18;28.33;;;2.00;84.60;;;;;;5060617;28;20029;-75
2020/12/10 08:51:47;;;;;;;65.07;27.55;;;1.90;84.70;;;;;;5057997;28;20530;-79
2020/12/10 08:54:16;;;;;;;64.20;28.02;;;1.90;85.00;;;;;;5066115;28;20055;-77
2020/12/10 08:56:43;;;;;;;64.40;27.65;;;1.90;84.80;;;;;;5062211;28;20024;-80
2020/12/10 08:59:09;;;;;;;73.00;29.00;;;1.90;84.50;;;;;;5071627;28;20467;-78
2020/12/10 09:01:35;;;;;;;70.55;30.23;;;1.90;84.70;;;;;;5058378;28;20029;-77
2020/12/10 09:04:07;;;;;;;73.05;30.83;;;1.90;85.20;;;;;;5067809;28;20095;-75
2020/12/10 09:06:35;;;;;;;72.75;30.33;;;1.80;85.90;;;;;;5055606;28;20028;-78
2020/12/10 09:09:02;;;;;;;80.13;31.23;;;1.80;86.20;;;;;;5061491;28;20029;-78
2020/12/10 09:11:28;;;;;;;80.15;32.50;;;1.80;86.00;;;;;;5063006;28;20024;-77
2020/12/10 09:13:54;;;;;;;73.07;30.95;;;1.80;86.30;;;;;;5068822;28;20157;-79
2020/12/10 09:16:23;;;;;;;76.03;33.13;;;1.80;85.70;;;;;;5067979;28;20016;-80
2020/12/10 09:18:49;;;;;;;74.38;30.58;;;1.90;85.40;;;;;;5057823;28;20498;-80
2020/12/10 09:21:15;;;;;;;72.80;31.88;;;1.90;85.00;;;;;;5060917;28;20365;-83
2020/12/10 09:23:44;;;;;;;73.78;31.02;;;1.90;85.20;;;;;;5064538;28;20091;-83
2020/12/10 09:26:14;;;;;;;68.90;29.10;;;1.90;85.20;;;;;;5054022;28;20533;-82
2020/12/10 09:28:40;;;;;;;67.03;29.98;;;2.00;85.40;;;;;;5065843;28;20057;-81
2020/12/10 09:31:06;;;;;;;74.70;29.38;;;2.00;84.80;;;;;;5059988;28;20106;-82
2020/12/10 09:33:32;;;;;;;74.10;30.15;;;2.00;84.50;;;;;;5058425;28;20017;-81
2020/12/10 09:35:58;;;;;;;74.38;31.20;;;2.00;84.60;;;;;;5049403;28;20434;-85
2020/12/10 09:38:24;;;;;;;69.28;29.13;;;2.00;84.00;;;;;;5036057;28;20016;-84
2020/12/10 09:40:49;;;;;;;76.55;31.67;;;2.00;84.10;;;;;;5046197;28;20021;-80
2020/12/10 09:43:15;;;;;;;68.57;29.42;;;1.90;84.20;;;;;;5037984;28;20035;-78
2020/12/10 09:45:44;;;;;;;72.05;30.08;;;2.00;84.20;;;;;;5050790;28;20107;-82
2020/12/10 09:48:10;;;;;;;68.30;29.77;;;2.10;84.00;;;;;;5066977;28;20503;-79
2020/12/10 09:50:37;;;;;;;70.18;29.77;;;2.00;84.00;;;;;;5037710;28;20025;-85
2020/12/10 09:58:20;;;;;;;79.45;31.92;;;2.20;83.20;;;;;;5067192;28;20383;-78
2020/12/10 10:00:49;;;;;;;73.57;29.27;;;2.20;83.20;;;;;;5035331;28;20025;-78
2020/12/10 10:03:20;;;;;;;71.95;30.48;;;2.20;83.20;;;;;;5060592;28;20064;-79
2020/12/10 10:05:46;;;;;;;75.32;29.20;;;2.20;83.20;;;;;;5056649;28;20029;-79
2020/12/10 10:08:12;;;;;;;73.20;30.17;;;2.20;83.20;;;;;;5048586;28;20184;-76
2020/12/10 10:10:38;;;;;;;67.30;30.52;;;2.30;83.10;;;;;;5055623;28;20107;-78
2020/12/10 10:13:03;;;;;;;75.68;29.65;;;2.40;82.50;;;;;;5062382;28;20044;-77
2020/12/10 10:15:30;;;;;;;68.75;30.08;;;2.50;82.50;;;;;;5062782;28;20032;-76
2020/12/10 10:17:56;;;;;;;72.80;29.48;;;2.70;81.50;;;;;;5037076;28;20479;-78
2020/12/10 10:20:21;;;;;;;73.68;30.45;;;2.60;81.70;;;;;;5066994;28;20056;-77
2020/12/10 10:22:47;;;;;;;70.57;30.98;;;2.50;82.00;;;;;;5038990;28;20475;-77
2020/12/10 10:25:13;;;;;;;68.07;29.52;;;2.60;81.90;;;;;;5060609;28;20619;-78
2020/12/10 10:27:39;;;;;;;68.88;30.85;;;2.50;82.10;;;;;;5045889;28;20029;-79
2020/12/10 10:30:06;;;;;;;68.97;30.65;;;2.30;82.10;;;;;;5055067;28;20040;-79
2020/12/10 10:32:33;;;;;;;74.28;29.85;;;2.40;82.40;;;;;;5032335;28;20044;-79
2020/12/10 10:34:59;;;;;;;79.20;30.65;;;2.40;82.40;;;;;;5058122;28;20032;-76
2020/12/10 10:37:24;;;;;;;77.97;32.05;;;2.60;82.00;;;;;;5061061;28;20021;-77
2020/12/10 10:39:50;;;;;;;78.00;31.70;;;2.70;81.50;;;;;;5068856;28;20025;-76
2020/12/10 10:42:16;;;;;;;65.90;30.13;;;2.50;81.60;;;;;;5039205;28;20036;-77
2020/12/10 10:44:41;;;;;;;73.35;29.92;;;2.60;81.60;;;;;;5050341;28;20028;-77
2020/12/10 10:47:07;;;;;;;73.07;30.02;;;2.70;81.30;;;;;;5062656;28;20129;-78
2020/12/10 10:49:33;;;;;;;69.30;31.15;;;2.60;81.40;;;;;;5060991;28;20134;-80
2020/12/10 10:51:58;;;;;;;69.60;30.73;;;2.80;81.20;;;;;;5069757;28;20029;-78
2020/12/10 10:54:24;;;;;;;73.35;29.38;;;2.80;81.10;;;;;;5057050;28;20455;-77
2020/12/10 10:56:50;;;;;;;70.05;30.08;;;2.80;81.00;;;;;;5067753;28;20021;-80
2020/12/10 10:59:16;;;;;;;75.93;30.77;;;2.70;81.10;;;;;;5063142;28;20025;-79
2020/12/10 11:01:42;;;;;;;76.85;32.08;;;2.70;81.30;;;;;;5066821;28;20219;-78
2020/12/10 11:04:07;;;;;;;71.03;30.60;;;2.90;80.80;;;;;;5038991;28;20033;-78
2020/12/10 11:06:33;;;;;;;71.95;31.08;;;2.80;80.60;;;;;;5050980;28;20032;-78
2020/12/10 11:08:59;;;;;;;71.60;29.92;;;2.80;80.90;;;;;;5061048;28;20403;-78
2020/12/10 11:11:25;;;;;;;71.03;30.55;;;3.00;80.60;;;;;;5061927;28;20029;-76
2020/12/10 11:13:54;;;;;;;69.65;30.15;;;3.20;80.00;;;;;;5059983;28;20033;-77
2020/12/10 11:16:21;;;;;;;70.88;28.95;;;3.10;79.50;;;;;;5054329;28;20073;-79
2020/12/10 11:18:47;;;;;;;62.67;28.90;;;3.00;80.00;;;;;;5054088;28;20020;-77
2020/12/10 11:21:13;;;;;;;71.80;29.27;;;3.20;79.30;;;;;;5052932;28;20024;-82
2020/12/10 11:23:39;;;;;;;75.53;30.60;;;3.00;79.70;;;;;;5054404;28;20025;-79
2020/12/10 11:26:05;;;;;;;65.68;29.95;;;3.00;80.00;;;;;;5070178;28;20494;-80
2020/12/10 11:28:30;;;;;;;66.47;29.83;;;2.90;80.30;;;;;;5039453;28;20031;-76
2020/12/10 11:30:57;;;;;;;72.53;30.52;;;2.90;80.20;;;;;;5065567;28;20021;-77
2020/12/10 11:33:24;;;;;;;73.55;28.98;;;2.80;80.30;;;;;;5053121;28;20033;-76
2020/12/10 11:35:51;;;;;;;71.20;31.02;;;2.80;80.60;;;;;;5068261;28;20460;-77
2020/12/10 11:38:17;;;;;;;70.68;31.02;;;2.80;80.80;;;;;;5056676;28;20029;-78
2020/12/10 11:40:42;;;;;;;70.78;29.58;;;2.70;80.70;;;;;;5049386;28;20027;-77
2020/12/10 11:43:08;;;;;;;69.20;30.33;;;2.60;81.10;;;;;;5044582;28;20036;-79
2020/12/10 11:45:34;;;;;;;75.45;31.55;;;2.60;81.20;;;;;;5042591;28;20445;-84
2020/12/10 11:48:03;;;;;;;76.20;31.02;;;2.70;81.10;;;;;;5049597;28;20048;-81
2020/12/10 11:50:31;;;;;;;80.38;32.40;;;2.80;80.80;;;;;;5069491;28;20124;-74
2020/12/10 11:52:57;;;;;;;78.68;30.92;;;2.70;81.00;;;;;;5043307;28;20090;-75
2020/12/10 11:55:23;;;;;;;80.07;34.05;;;2.80;80.80;;;;;;5061854;28;20028;-75
2020/12/10 11:57:49;;;;;;;77.55;32.15;;;2.80;80.80;;;;;;5072810;28;20028;-74
2020/12/10 12:00:16;;;;;;;78.13;34.22;;;2.70;81.00;;;;;;5038403;28;20032;-74
2020/12/10 12:02:41;;;;;;;80.53;32.90;;;2.60;81.00;;;;;;5067600;28;20024;-73
2020/12/10 12:05:08;;;;;;;74.72;31.55;;;2.50;81.40;;;;;;5062143;28;20081;-74
2020/12/10 12:07:34;;;;;;;73.95;31.58;;;2.40;81.80;;;;;;5060283;28;20060;-75
2020/12/10 12:10:00;;;;;;;78.38;30.00;;;2.50;81.70;;;;;;5069170;28;20078;-74
2020/12/10 12:12:27;;;;;;;79.20;29.70;;;2.60;81.60;;;;;;5035014;28;20040;-74
2020/12/10 12:14:53;;;;;;;76.95;30.65;;;2.50;81.60;;;;;;5058507;28;20479;-75
2020/12/10 12:17:18;;;;;;;81.22;34.15;;;2.60;81.60;;;;;;5061555;28;20033;-74
2020/12/10 12:19:44;;;;;;;78.15;32.47;;;2.50;81.60;;;;;;5066893;28;20439;-75
2020/12/10 12:22:10;;;;;;;74.43;31.80;;;2.40;81.90;;;;;;5055015;28;20491;-75
2020/12/10 12:24:35;;;;;;;79.53;32.28;;;2.50;81.90;;;;;;5056979;28;20098;-74
2020/12/10 12:27:05;;;;;;;74.40;31.38;;;2.50;81.50;;;;;;5046304;28;20021;-81
2020/12/10 12:29:31;;;;;;;80.85;31.58;;;2.60;81.80;;;;;;5066261;28;20036;-79
2020/12/10 12:31:57;;;;;;;73.45;30.58;;;2.60;81.20;;;;;;5037947;28;20017;-79
2020/12/10 12:34:23;;;;;;;66.53;28.55;;;2.50;81.60;;;;;;5064552;28;20115;-77
2020/12/10 12:36:49;;;;;;;69.20;30.85;;;2.40;81.70;;;;;;5044562;23;20052;-80
2020/12/10 12:39:14;;;;;;;72.55;30.52;;;2.50;81.60;;;;;;5060926;28;20564;-76
2020/12/10 12:41:40;;;;;;;67.97;28.40;;;2.60;81.50;;;;;;5071637;28;20021;-75
2020/12/10 12:44:06;;;;;;;72.35;31.15;;;2.60;81.40;;;;;;5071956;28;20070;-79